Time;durP1;ratioP1;P1;durP2;ratioP2;P2;SDS_P1;SDS_P2;PMS_P1;PMS_P2;Temp;Humidity;BMP_temperature;BMP_pressure;BME280_temperature;BME280_humidity;BME280_pressure;Samples;Min_cycle;Max_cycle;Signal;HPM_P1;HPM_P2
2021/11/10 00:00:30;;;;;;;4.57;2.22;;;;;;;6.56;99.22;102574.16;5029865;28;20025;-70
2021/11/10 00:02:56;;;;;;;5.05;3.00;;;;;;;6.58;98.36;102553.00;5030683;28;20108;-69
2021/11/10 00:05:22;;;;;;;10.63;4.95;;;;;;;6.53;98.87;102569.66;5030354;28;20053;-67
2021/11/10 00:07:48;;;;;;;8.23;3.38;;;;;;;6.54;98.77;102580.81;5011977;28;20033;-70
2021/11/10 00:10:14;;;;;;;5.30;3.13;;;;;;;6.59;98.06;102585.59;5030792;28;20033;-69
2021/11/10 00:12:40;;;;;;;5.25;2.30;;;;;;;6.55;97.83;102575.81;5030269;28;20534;-69
2021/11/10 00:15:08;;;;;;;5.93;2.80;;;;;;;6.42;98.55;102578.97;5030604;28;20040;-72
2021/11/10 00:17:33;;;;;;;5.72;2.72;;;;;;;6.05;99.59;102575.72;5012060;28;20495;-71
2021/11/10 00:19:59;;;;;;;4.47;2.67;;;;;;;5.46;100.00;102546.47;5030134;28;20104;-69
2021/11/10 00:22:25;;;;;;;6.00;2.75;;;;;;;5.51;100.00;102575.97;5030394;28;20026;-70
2021/11/10 00:24:51;;;;;;;4.35;2.70;;;;;;;5.01;100.00;102583.34;5029914;28;20034;-69
2021/11/10 00:27:17;;;;;;;4.82;2.70;;;;;;;5.02;100.00;102590.25;5033553;28;20551;-70
2021/11/10 00:29:43;;;;;;;5.95;3.10;;;;;;;5.00;100.00;102584.97;5034276;28;20132;-70
2021/11/10 00:32:08;;;;;;;5.63;3.40;;;;;;;4.77;100.00;102584.47;5016078;28;20056;-71
2021/11/10 00:34:34;;;;;;;6.18;3.80;;;;;;;4.96;100.00;102590.59;5034114;28;20112;-68
2021/11/10 00:37:00;;;;;;;6.50;3.25;;;;;;;5.22;100.00;102596.31;5033649;28;20025;-70
2021/11/10 00:39:26;;;;;;;5.93;3.10;;;;;;;4.79;100.00;102531.78;5034204;28;20501;-71
2021/11/10 00:41:51;;;;;;;6.55;3.42;;;;;;;5.22;100.00;102579.31;5033230;28;20029;-72
2021/11/10 00:44:17;;;;;;;6.25;3.60;;;;;;;4.50;100.00;102492.47;5033694;28;20025;-77
2021/11/10 00:46:42;;;;;;;6.15;4.00;;;;;;;4.74;100.00;102589.31;5033907;28;20057;-71
2021/11/10 00:49:08;;;;;;;6.28;3.70;;;;;;;4.83;100.00;102596.19;5033352;28;20033;-71
2021/11/10 00:51:33;;;;;;;7.30;4.00;;;;;;;5.03;100.00;102586.94;5015115;28;20042;-70
2021/11/10 00:53:59;;;;;;;6.65;4.18;;;;;;;5.08;100.00;102583.13;5033834;28;20037;-70
2021/11/10 00:56:25;;;;;;;7.93;4.28;;;;;;;5.21;100.00;102587.75;5033322;28;20443;-69
2021/11/10 00:58:50;;;;;;;6.05;3.85;;;;;;;5.41;100.00;102586.09;4993664;28;20041;-69
2021/11/10 01:01:16;;;;;;;6.88;3.80;;;;;;;5.54;100.00;102589.03;5031126;28;20048;-72
2021/11/10 01:03:42;;;;;;;6.72;3.90;;;;;;;5.59;99.93;102590.38;5032909;28;20071;-70
2021/11/10 01:06:08;;;;;;;7.07;3.83;;;;;;;5.66;99.63;102613.22;5033012;28;20053;-70
2021/11/10 01:08:33;;;;;;;6.60;3.53;;;;;;;5.75;98.88;102599.47;5028958;28;20056;-69
2021/11/10 01:10:59;;;;;;;7.78;4.00;;;;;;;5.46;99.36;102528.53;5026133;28;20030;-72
2021/11/10 01:13:25;;;;;;;6.88;3.88;;;;;;;5.88;100.00;102602.38;5021947;28;20025;-73
2021/11/10 01:15:51;;;;;;;16.00;4.55;;;;;;;5.91;100.00;102605.22;5028012;28;20471;-71
2021/11/10 01:18:16;;;;;;;12.30;4.05;;;;;;;5.90;100.00;102588.03;5032649;28;20028;-70
2021/11/10 01:20:42;;;;;;;9.20;4.22;;;;;;;6.03;98.96;102595.22;5032985;28;20049;-73
2021/11/10 01:23:09;;;;;;;7.95;4.20;;;;;;;5.99;96.29;102593.09;5032667;28;20029;-71
2021/11/10 01:25:36;;;;;;;8.23;4.30;;;;;;;5.75;96.91;102581.53;5032583;28;20037;-70
2021/11/10 01:28:03;;;;;;;7.80;4.07;;;;;;;5.85;97.88;102594.41;5032469;28;20033;-74
2021/11/10 01:30:29;;;;;;;7.80;4.25;;;;;;;5.58;98.06;102614.22;5018069;28;20056;-73
2021/11/10 01:32:54;;;;;;;9.25;3.65;;;;;;;5.34;99.09;102607.72;5032669;28;20456;-73
2021/11/10 01:35:21;;;;;;;5.35;3.03;;;;;;;5.27;99.80;102603.69;5032958;28;20037;-74
2021/11/10 01:37:46;;;;;;;6.50;3.10;;;;;;;4.79;99.76;102507.09;5031809;28;20034;-72
2021/11/10 01:40:13;;;;;;;8.93;4.95;;;;;;;5.31;100.00;102598.09;5031675;28;20026;-72
2021/11/10 01:42:41;;;;;;;6.70;5.47;;;;;;;5.17;99.80;102580.53;5031336;28;20029;-71
2021/11/10 01:45:09;;;;;;;7.03;4.22;;;;;;;5.20;100.00;102609.00;5031114;28;20037;-72
2021/11/10 01:47:35;;;;;;;5.20;3.40;;;;;;;4.72;100.00;102519.19;5031985;28;20037;-72
2021/11/10 01:50:02;;;;;;;4.18;2.75;;;;;;;5.21;100.00;102615.94;5031781;28;20381;-73
2021/11/10 01:52:27;;;;;;;5.95;2.95;;;;;;;5.20;100.00;102609.00;5031886;28;20526;-69
2021/11/10 01:54:54;;;;;;;8.43;2.90;;;;;;;5.33;100.00;102605.91;5012249;28;20124;-70
2021/11/10 01:57:19;;;;;;;4.20;2.70;;;;;;;5.47;100.00;102614.84;5030970;28;20120;-73
2021/11/10 02:00:00;;;;;;;5.95;2.90;;;;;;;5.59;99.32;102617.66;5032113;28;20128;-70
2021/11/10 02:02:29;;;;;;;6.40;3.28;;;;;;;4.98;98.13;102516.47;5025370;28;20033;-70
2021/11/10 02:04:55;;;;;;;4.68;2.33;;;;;;;5.60;97.79;102614.34;5032010;28;20079;-71
2021/11/10 02:07:20;;;;;;;5.28;3.00;;;;;;;5.63;97.46;102612.97;5031364;28;20392;-71
2021/11/10 02:09:48;;;;;;;5.05;2.85;;;;;;;5.51;99.17;102625.53;5031748;28;20446;-71
2021/11/10 02:12:15;;;;;;;7.38;2.70;;;;;;;5.17;99.21;102636.84;5032119;28;20030;-70
2021/11/10 02:14:41;;;;;;;8.85;2.60;;;;;;;4.89;100.00;102631.72;5031775;28;20021;-71
2021/11/10 02:17:19;;;;;;;3.92;2.50;;;;;;;4.87;100.00;102615.28;5032201;28;20087;-71
2021/11/10 02:19:44;;;;;;;5.35;2.50;;;;;;;4.95;100.00;102627.16;5031464;28;20022;-71
2021/11/10 02:22:13;;;;;;;5.38;2.40;;;;;;;5.09;100.00;102619.91;5031821;28;20022;-71
2021/11/10 02:24:39;;;;;;;3.58;2.47;;;;;;;5.16;100.00;102635.09;5031846;28;20045;-70
2021/11/10 02:27:14;;;;;;;3.85;2.30;;;;;;;5.18;98.86;102610.50;5031894;28;20018;-68
2021/11/10 02:29:40;;;;;;;3.72;2.40;;;;;;;4.68;97.96;102538.47;5031669;28;20076;-69
2021/11/10 02:32:09;;;;;;;4.03;2.13;;;;;;;5.16;98.80;102627.41;5031243;28;20467;-67
2021/11/10 02:34:39;;;;;;;5.35;2.95;;;;;;;5.18;99.64;102636.09;5031196;28;20466;-71
2021/11/10 02:37:05;;;;;;;8.45;2.85;;;;;;;5.26;98.71;102642.84;5030733;28;20029;-70
2021/11/10 02:39:31;;;;;;;7.30;2.25;;;;;;;5.26;97.62;102645.41;5031013;28;20045;-70
2021/11/10 02:41:57;;;;;;;5.57;2.13;;;;;;;5.19;97.88;102655.84;5031289;28;20056;-69
2021/11/10 02:44:23;;;;;;;6.55;2.38;;;;;;;4.94;98.30;102610.00;5030802;28;20471;-69
2021/11/10 02:46:51;;;;;;;4.80;2.78;;;;;;;5.18;98.92;102646.34;5012849;28;20091;-71
2021/11/10 02:49:21;;;;;;;5.75;2.72;;;;;;;4.99;98.67;102646.28;5029914;28;20075;-72
2021/11/10 02:52:02;;;;;;;6.10;2.35;;;;;;;4.81;99.50;102663.34;5031216;28;20017;-69
2021/11/10 02:54:30;;;;;;;5.32;2.53;;;;;;;4.85;99.52;102655.22;5030979;28;20060;-69
2021/11/10 02:56:58;;;;;;;5.90;2.67;;;;;;;4.43;100.00;102568.50;4995443;28;20069;-68
2021/11/10 02:59:24;;;;;;;6.20;3.13;;;;;;;4.95;100.00;102655.31;5030885;28;20033;-68
2021/11/10 03:01:51;;;;;;;16.13;3.75;;;;;;;4.96;100.00;102658.78;5031257;28;20389;-70
2021/11/10 03:04:25;;;;;;;5.93;3.20;;;;;;;4.79;100.00;102660.63;5031194;28;20057;-72
2021/11/10 03:06:52;;;;;;;6.18;2.65;;;;;;;4.79;100.00;102670.88;5031412;28;20025;-69
2021/11/10 03:09:20;;;;;;;3.92;2.00;;;;;;;4.66;100.00;102663.69;5030800;28;20124;-69
2021/11/10 03:11:46;;;;;;;6.63;2.50;;;;;;;4.61;100.00;102649.56;5030842;28;20032;-70
2021/11/10 03:14:13;;;;;;;4.30;2.50;;;;;;;4.83;100.00;102657.59;5031259;28;20025;-70
2021/11/10 03:16:39;;;;;;;7.18;3.13;;;;;;;4.84;100.00;102656.84;5021892;28;20412;-70
2021/11/10 03:19:04;;;;;;;6.47;3.30;;;;;;;4.93;100.00;102658.50;5025005;28;20090;-68
2021/11/10 03:21:30;;;;;;;7.50;4.05;;;;;;;4.90;100.00;102643.75;5030723;28;20045;-69
2021/11/10 03:23:56;;;;;;;6.45;3.10;;;;;;;5.07;100.00;102670.97;5030542;28;20162;-71
2021/11/10 03:26:22;;;;;;;7.32;3.72;;;;;;;5.00;99.23;102664.34;5030559;28;20022;-70
2021/11/10 03:28:48;;;;;;;5.60;3.40;;;;;;;4.90;99.75;102674.47;5030468;28;20060;-70
2021/11/10 03:31:14;;;;;;;6.05;3.65;;;;;;;4.69;100.00;102658.84;5030658;28;20025;-68
2021/11/10 03:33:39;;;;;;;6.63;3.05;;;;;;;4.70;100.00;102678.56;5031138;28;20031;-69
2021/11/10 03:36:05;;;;;;;9.80;3.30;;;;;;;4.75;100.00;102676.47;5030915;28;20083;-71
2021/11/10 03:38:30;;;;;;;5.78;3.30;;;;;;;4.88;100.00;102665.72;5030655;28;20037;-69
2021/11/10 03:40:56;;;;;;;7.05;3.50;;;;;;;4.95;100.00;102673.25;5030300;28;20052;-70
2021/11/10 03:43:21;;;;;;;8.18;3.60;;;;;;;4.36;100.00;102606.25;5030712;28;20021;-69
2021/11/10 03:45:47;;;;;;;7.53;3.65;;;;;;;4.54;100.00;102665.06;5030662;28;20048;-72
2021/11/10 03:48:12;;;;;;;6.32;3.50;;;;;;;4.40;100.00;102650.03;5031177;28;20014;-68
2021/11/10 03:50:42;;;;;;;6.05;3.42;;;;;;;4.46;100.00;102665.97;5030697;28;20052;-70
2021/11/10 03:53:07;;;;;;;7.60;3.35;;;;;;;4.53;100.00;102661.59;5030972;28;20491;-70
2021/11/10 03:55:36;;;;;;;5.57;3.33;;;;;;;4.25;100.00;102577.84;5030362;28;20089;-70
2021/11/10 03:58:03;;;;;;;9.30;5.18;;;;;;;4.74;100.00;102658.41;5030795;28;20112;-69
2021/11/10 04:00:29;;;;;;;9.70;4.65;;;;;;;4.76;100.00;102649.19;5031633;28;20025;-72
2021/11/10 04:02:54;;;;;;;7.65;4.38;;;;;;;4.86;100.00;102649.34;5031275;28;20029;-70
2021/11/10 04:05:20;;;;;;;7.60;4.45;;;;;;;4.95;100.00;102649.31;5019336;28;20060;-69
2021/11/10 04:07:45;;;;;;;9.07;5.65;;;;;;;4.78;100.00;102611.88;5034166;28;20475;-69
2021/11/10 04:10:11;;;;;;;9.77;4.15;;;;;;;5.02;100.00;102644.00;5034104;28;20018;-69
2021/11/10 04:12:37;;;;;;;6.63;4.80;;;;;;;4.98;99.55;102637.69;5034051;28;20194;-68
2021/11/10 04:15:03;;;;;;;14.23;4.22;;;;;;;4.94;99.07;102625.38;5034438;28;20018;-68
2021/11/10 04:17:28;;;;;;;9.73;4.53;;;;;;;5.08;99.35;102643.69;5034053;28;20033;-68
2021/11/10 04:19:54;;;;;;;9.90;4.18;;;;;;;5.10;99.30;102639.63;5032960;28;20021;-69
2021/11/10 04:22:20;;;;;;;6.85;3.55;;;;;;;5.07;99.72;102647.94;5034202;28;20029;-69
2021/11/10 04:24:46;;;;;;;9.15;3.53;;;;;;;5.16;100.00;102646.22;5033363;28;20033;-68
2021/11/10 04:27:12;;;;;;;5.75;3.67;;;;;;;5.24;100.00;102657.16;5034689;28;20028;-68
2021/11/10 04:29:38;;;;;;;6.85;3.78;;;;;;;4.66;100.00;102565.53;5024840;28;20386;-69
2021/11/10 04:32:04;;;;;;;8.85;3.97;;;;;;;4.57;100.00;102647.44;5032861;28;20033;-71
2021/11/10 04:34:29;;;;;;;9.85;5.25;;;;;;;4.06;100.00;102660.41;5034099;28;20026;-71
2021/11/10 04:36:55;;;;;;;13.05;6.15;;;;;;;3.92;100.00;102653.94;5033875;28;20033;-71
2021/11/10 04:39:20;;;;;;;11.80;6.50;;;;;;;3.93;100.00;102648.06;5033946;28;20071;-72
2021/11/10 04:41:46;;;;;;;39.85;23.65;;;;;;;3.86;100.00;102653.31;5033935;28;20088;-70
2021/11/10 04:44:12;;;;;;;15.20;10.27;;;;;;;3.48;100.00;102625.75;5027828;28;20040;-68
2021/11/10 04:46:37;;;;;;;19.40;15.98;;;;;;;3.51;100.00;102643.03;4998794;28;20042;-69
2021/11/10 04:49:05;;;;;;;15.38;10.10;;;;;;;3.64;100.00;102634.94;5033498;28;20026;-70
2021/11/10 04:51:31;;;;;;;19.60;9.00;;;;;;;3.02;100.00;102526.72;5033907;28;20025;-70
2021/11/10 04:53:58;;;;;;;17.60;9.60;;;;;;;3.35;100.00;102649.16;5033268;28;20021;-68
2021/11/10 04:56:25;;;;;;;16.90;10.13;;;;;;;3.12;100.00;102630.63;5033447;28;20033;-68
2021/11/10 04:58:50;;;;;;;12.05;8.55;;;;;;;3.12;100.00;102633.19;5033571;28;20022;-68
2021/11/10 05:01:18;;;;;;;14.23;7.20;;;;;;;2.84;100.00;102645.63;5033398;28;20035;-69
2021/11/10 05:03:44;;;;;;;21.77;11.10;;;;;;;2.48;100.00;102653.81;5033199;28;20068;-71
2021/11/10 05:06:09;;;;;;;15.93;9.55;;;;;;;2.25;100.00;102667.59;5033029;28;20464;-70
2021/11/10 05:08:35;;;;;;;14.98;9.88;;;;;;;2.61;100.00;102676.41;5033647;28;20412;-70
2021/11/10 05:11:00;;;;;;;15.38;10.00;;;;;;;2.75;100.00;102664.38;5032865;28;20031;-70
2021/11/10 05:13:26;;;;;;;22.05;12.48;;;;;;;2.81;100.00;102640.22;5024358;28;20037;-68
2021/11/10 05:15:52;;;;;;;18.73;13.65;;;;;;;3.04;100.00;102657.88;5025153;28;20476;-70
2021/11/10 05:18:17;;;;;;;16.60;11.20;;;;;;;3.18;100.00;102666.97;5032996;28;20033;-72
2021/11/10 05:20:44;;;;;;;40.50;27.08;;;;;;;3.34;100.00;102661.75;5015520;28;20091;-71
2021/11/10 05:23:10;;;;;;;17.33;11.00;;;;;;;3.46;100.00;102668.09;5015037;28;20074;-70
2021/11/10 05:25:36;;;;;;;16.40;10.57;;;;;;;3.58;100.00;102652.22;5030006;28;20033;-71
2021/11/10 05:28:01;;;;;;;13.55;9.93;;;;;;;3.66;100.00;102664.13;5033645;28;20040;-70
2021/11/10 05:30:27;;;;;;;11.68;6.15;;;;;;;3.89;100.00;102671.53;5030499;28;20049;-71
2021/11/10 05:32:53;;;;;;;10.82;6.05;;;;;;;4.14;100.00;102677.41;5033146;28;20030;-70
2021/11/10 05:35:18;;;;;;;10.13;5.78;;;;;;;4.36;100.00;102675.31;5031466;28;20033;-70
2021/11/10 05:37:44;;;;;;;13.02;5.35;;;;;;;4.56;100.00;102671.25;5033293;28;20030;-70
2021/11/10 05:40:10;;;;;;;9.55;5.38;;;;;;;4.70;100.00;102670.00;5033552;28;20061;-70
2021/11/10 05:42:35;;;;;;;15.55;6.10;;;;;;;4.90;100.00;102679.59;5033474;28;20512;-70
2021/11/10 05:45:01;;;;;;;10.93;6.20;;;;;;;5.03;100.00;102679.09;5033148;28;20033;-70
2021/11/10 05:47:26;;;;;;;10.18;6.40;;;;;;;5.24;100.00;102687.00;5032878;28;20083;-70
2021/11/10 05:49:52;;;;;;;13.52;6.72;;;;;;;5.37;100.00;102694.19;5032991;28;20029;-70
2021/11/10 05:52:17;;;;;;;14.18;8.25;;;;;;;4.87;100.00;102694.63;5032643;28;20064;-70
2021/11/10 05:54:43;;;;;;;21.42;8.65;;;;;;;4.51;100.00;102710.78;5032648;28;20033;-70
2021/11/10 05:57:13;;;;;;;12.10;6.90;;;;;;;4.00;100.00;102639.34;5032754;28;20056;-72
2021/11/10 05:59:42;;;;;;;13.18;7.90;;;;;;;4.34;100.00;102720.28;5032939;28;20025;-70
2021/11/10 06:02:08;;;;;;;20.00;7.97;;;;;;;4.46;100.00;102722.22;5032889;28;20104;-70
2021/11/10 06:04:33;;;;;;;18.10;7.60;;;;;;;4.51;100.00;102718.47;5032372;28;20116;-70
2021/11/10 06:06:59;;;;;;;13.10;7.75;;;;;;;4.37;100.00;102719.69;5014817;28;20029;-70
2021/11/10 06:09:26;;;;;;;15.98;9.32;;;;;;;4.16;100.00;102736.34;5032734;28;20399;-70
2021/11/10 06:11:52;;;;;;;15.85;8.15;;;;;;;4.29;100.00;102741.06;5032632;28;20043;-70
2021/11/10 06:14:17;;;;;;;14.63;9.82;;;;;;;2.97;100.00;102572.16;5032496;28;20112;-71
2021/11/10 06:16:43;;;;;;;19.88;11.55;;;;;;;3.93;100.00;102754.53;5032462;28;20029;-71
2021/11/10 06:19:08;;;;;;;21.50;11.57;;;;;;;4.15;100.00;102762.66;5030381;28;20411;-70
2021/11/10 06:21:35;;;;;;;17.63;10.88;;;;;;;4.41;100.00;102755.06;5031682;28;20200;-71
2021/11/10 06:24:00;;;;;;;20.40;15.07;;;;;;;4.32;100.00;102736.22;5031654;28;20044;-71
2021/11/10 06:26:26;;;;;;;21.58;15.85;;;;;;;4.46;100.00;102765.72;5032108;28;20503;-71
2021/11/10 06:28:51;;;;;;;18.98;12.10;;;;;;;4.68;100.00;102772.19;5032156;28;20069;-71
2021/11/10 06:31:17;;;;;;;17.00;10.27;;;;;;;4.68;100.00;102758.50;5031639;28;20041;-70
2021/11/10 06:33:43;;;;;;;14.57;8.77;;;;;;;4.86;100.00;102754.28;5032126;28;20022;-71
2021/11/10 06:36:08;;;;;;;17.65;9.60;;;;;;;4.96;100.00;102736.50;5032026;28;20037;-70
2021/11/10 06:38:34;;;;;;;16.50;8.60;;;;;;;5.13;100.00;102745.78;5031929;28;20029;-69
2021/11/10 06:41:00;;;;;;;16.02;8.80;;;;;;;5.25;100.00;102774.22;5032053;28;20080;-69
2021/11/10 06:43:26;;;;;;;17.45;9.82;;;;;;;4.50;100.00;102612.69;5032295;28;20030;-69
2021/11/10 06:45:52;;;;;;;15.40;8.95;;;;;;;5.73;100.00;102773.63;5031790;28;20476;-69
2021/11/10 06:48:18;;;;;;;17.08;7.90;;;;;;;5.44;100.00;102687.22;5013346;28;20037;-70
2021/11/10 06:50:44;;;;;;;15.40;7.70;;;;;;;5.96;100.00;102768.06;5031971;28;20108;-69
2021/11/10 06:53:10;;;;;;;13.32;6.43;;;;;;;5.58;100.00;102679.91;5031967;28;20029;-70
2021/11/10 06:55:36;;;;;;;13.30;6.55;;;;;;;6.15;100.00;102759.53;5031632;28;20116;-69
2021/11/10 06:58:01;;;;;;;16.80;7.65;;;;;;;6.40;100.00;102764.34;5031577;28;20064;-69
2021/11/10 07:00:27;;;;;;;15.82;8.32;;;;;;;6.57;100.00;102742.78;5031513;28;20049;-69
2021/11/10 07:02:53;;;;;;;11.55;7.03;;;;;;;6.48;100.00;102689.84;5031411;28;20069;-70
2021/11/10 07:05:18;;;;;;;12.57;6.50;;;;;;;7.04;99.47;102766.66;5031053;28;20030;-70
2021/11/10 07:07:45;;;;;;;20.55;7.53;;;;;;;6.92;99.17;102750.16;5031674;28;20029;-70
2021/11/10 07:10:11;;;;;;;9.00;6.13;;;;;;;7.23;97.85;102766.59;5031244;28;20033;-70
2021/11/10 07:12:37;;;;;;;14.05;7.05;;;;;;;7.45;98.45;102769.34;5025481;28;20506;-70
2021/11/10 07:15:03;;;;;;;12.60;6.43;;;;;;;7.21;97.88;102697.84;5025138;28;20033;-72
2021/11/10 07:17:29;;;;;;;10.73;6.60;;;;;;;7.64;95.67;102758.09;5024423;28;20033;-73
2021/11/10 07:20:15;;;;;;;14.43;7.00;;;;;;;7.46;96.04;102726.56;5007467;28;20041;-71
2021/11/10 07:22:40;;;;;;;17.67;8.00;;;;;;;7.73;95.13;102758.88;5008002;28;20615;-71
2021/11/10 07:25:07;;;;;;;14.48;7.65;;;;;;;7.74;95.00;102760.69;5007862;28;20539;-71
2021/11/10 07:27:34;;;;;;;13.57;7.15;;;;;;;7.79;94.53;102753.38;5005929;28;20030;-72
2021/11/10 07:29:59;;;;;;;15.73;7.78;;;;;;;7.86;94.51;102763.41;5008306;28;20120;-70
2021/11/10 07:32:25;;;;;;;16.75;8.15;;;;;;;8.00;94.96;102753.34;5009281;28;20616;-72
2021/11/10 07:34:51;;;;;;;18.10;7.72;;;;;;;7.94;95.33;102764.06;5008582;28;20539;-71
2021/11/10 07:37:16;;;;;;;17.30;8.05;;;;;;;6.90;96.68;102665.28;4991079;28;20091;-70
2021/11/10 07:39:44;;;;;;;16.00;7.18;;;;;;;7.58;98.32;102757.56;5008669;28;20451;-73
2021/11/10 07:42:10;;;;;;;12.38;5.20;;;;;;;7.61;95.93;102753.59;5008701;28;20029;-73
2021/11/10 07:44:37;;;;;;;13.88;6.40;;;;;;;7.74;97.16;102764.94;5008231;28;20053;-72
2021/11/10 07:49:55;;;;;;;18.10;7.88;;;;;;;8.06;95.22;102759.94;4970145;28;20056;-69
2021/11/10 07:52:20;;;;;;;16.85;7.07;;;;;;;8.19;94.19;102756.72;4970231;28;20043;-69
2021/11/10 07:54:46;;;;;;;14.13;7.85;;;;;;;8.33;94.21;102751.81;4970197;28;20039;-72
2021/11/10 07:57:11;;;;;;;15.60;7.03;;;;;;;8.40;95.48;102756.72;4969987;28;20513;-71
2021/11/10 07:59:37;;;;;;;9.57;4.60;;;;;;;8.38;92.43;102764.28;4970237;28;20516;-72
2021/11/10 08:02:02;;;;;;;6.88;4.75;;;;;;;8.29;92.59;102763.53;4970104;28;20409;-72
2021/11/10 08:04:28;;;;;;;10.90;6.22;;;;;;;8.37;94.88;102746.16;4970182;28;20041;-71
2021/11/10 08:06:53;;;;;;;11.98;6.45;;;;;;;8.49;92.59;102741.16;4969898;28;20035;-69
2021/11/10 08:09:19;;;;;;;10.68;6.40;;;;;;;8.49;92.27;102739.47;4970096;28;20035;-73
2021/11/10 08:11:45;;;;;;;9.23;5.03;;;;;;;8.70;90.17;102757.47;4969850;28;20035;-71
2021/11/10 08:14:11;;;;;;;29.25;13.48;;;;;;;8.44;89.57;102668.66;4970109;28;20043;-71
2021/11/10 08:16:36;;;;;;;18.63;8.85;;;;;;;8.88;89.98;102743.50;4969745;28;20162;-72
2021/11/10 08:19:02;;;;;;;10.80;7.32;;;;;;;8.97;88.85;102752.72;4988826;28;20573;-72
2021/11/10 08:21:28;;;;;;;9.15;5.00;;;;;;;8.86;85.01;102755.34;4989320;28;20042;-72
2021/11/10 08:23:53;;;;;;;6.22;4.22;;;;;;;8.75;79.49;102735.53;4989319;28;20040;-70
2021/11/10 08:26:19;;;;;;;6.07;4.60;;;;;;;8.80;79.92;102739.38;5003194;28;20046;-71
2021/11/10 08:28:45;;;;;;;8.02;4.68;;;;;;;8.85;81.72;102757.81;5030796;28;20026;-72
2021/11/10 08:31:10;;;;;;;10.00;4.85;;;;;;;8.94;81.05;102747.34;5031030;28;20025;-71
2021/11/10 08:33:36;;;;;;;6.25;4.13;;;;;;;8.55;80.59;102674.72;5030677;28;20043;-72
2021/11/10 08:36:02;;;;;;;6.10;4.30;;;;;;;9.01;78.22;102757.31;5030880;28;20026;-72
2021/11/10 08:38:29;;;;;;;5.68;4.25;;;;;;;9.19;79.38;102757.91;5030649;28;20442;-70
2021/11/10 08:40:56;;;;;;;15.05;4.65;;;;;;;9.33;74.91;102753.84;5028438;28;20037;-73
2021/11/10 08:43:22;;;;;;;6.97;5.15;;;;;;;9.37;77.32;102754.22;5012040;28;20120;-71
2021/11/10 08:45:50;;;;;;;10.13;4.90;;;;;;;9.48;78.52;102770.53;5029803;28;20027;-73
2021/11/10 08:48:17;;;;;;;5.45;3.28;;;;;;;9.48;75.03;102734.44;5032260;28;20032;-71
2021/11/10 08:50:44;;;;;;;10.38;4.53;;;;;;;9.73;76.67;102759.53;5033636;28;20032;-71
2021/11/10 08:53:12;;;;;;;13.75;5.75;;;;;;;9.57;75.36;102697.22;5033429;28;20519;-72
2021/11/10 08:55:37;;;;;;;11.13;4.20;;;;;;;10.06;75.58;102756.88;4997786;28;20115;-72
2021/11/10 08:58:04;;;;;;;9.45;3.97;;;;;;;10.06;73.39;102743.97;5031248;28;20029;-71
2021/11/10 09:00:33;;;;;;;5.32;3.42;;;;;;;9.65;72.66;102691.88;4989305;28;20045;-73
2021/11/10 09:02:59;;;;;;;24.98;6.50;;;;;;;9.91;75.20;102735.94;5032303;28;20110;-72
2021/11/10 09:05:25;;;;;;;13.70;5.55;;;;;;;10.05;74.11;102745.63;5032426;28;20029;-70
2021/11/10 09:07:50;;;;;;;17.98;6.30;;;;;;;10.03;73.52;102721.38;5033153;28;20021;-74
2021/11/10 09:10:18;;;;;;;9.80;5.22;;;;;;;10.30;74.38;102734.56;5032751;28;20029;-71
2021/11/10 09:12:45;;;;;;;8.25;4.80;;;;;;;10.37;75.96;102736.84;5032939;28;20063;-72
2021/11/10 09:15:13;;;;;;;7.43;5.18;;;;;;;10.44;73.47;102730.44;5027873;28;20118;-72
2021/11/10 09:17:40;;;;;;;10.05;4.32;;;;;;;10.12;70.93;102648.88;5035989;28;20510;-72
2021/11/10 09:20:10;;;;;;;12.20;4.68;;;;;;;10.62;72.64;102718.00;5034441;28;20037;-75
2021/11/10 09:22:38;;;;;;;8.95;4.53;;;;;;;10.74;73.08;102726.66;5034037;28;20033;-72
2021/11/10 09:25:05;;;;;;;8.02;4.78;;;;;;;10.78;73.72;102725.16;5032422;28;20124;-73
2021/11/10 09:27:31;;;;;;;8.35;4.43;;;;;;;10.89;70.98;102734.63;5032196;28;20088;-74
2021/11/10 09:29:56;;;;;;;14.45;5.90;;;;;;;10.97;71.49;102719.66;5032352;28;20526;-72
2021/11/10 09:32:22;;;;;;;9.45;3.50;;;;;;;10.95;68.44;102696.28;5032916;28;20025;-71
2021/11/10 09:34:48;;;;;;;12.52;4.78;;;;;;;11.08;68.04;102718.72;5033064;28;20464;-73
2021/11/10 09:37:13;;;;;;;8.82;5.22;;;;;;;11.17;71.16;102723.66;5032691;28;20078;-73
2021/11/10 09:39:39;;;;;;;9.32;5.85;;;;;;;11.10;69.55;102717.16;5030598;28;20500;-72
2021/11/10 09:42:05;;;;;;;11.18;5.07;;;;;;;10.99;70.69;102693.13;5031421;28;20037;-73
2021/11/10 09:44:31;;;;;;;19.15;5.22;;;;;;;11.17;67.38;102716.78;5031753;28;20488;-71
2021/11/10 09:46:56;;;;;;;13.00;4.50;;;;;;;11.32;68.55;102697.97;5031897;28;20091;-73
2021/11/10 09:49:22;;;;;;;18.38;5.55;;;;;;;11.31;66.51;102697.09;5031159;28;20109;-72
2021/11/10 09:51:49;;;;;;;5.80;3.90;;;;;;;11.06;68.87;102667.72;5031406;28;20475;-72
2021/11/10 09:54:15;;;;;;;9.30;4.10;;;;;;;11.20;68.29;102699.69;5031726;28;20043;-70
2021/11/10 09:56:44;;;;;;;6.30;3.70;;;;;;;11.21;66.75;102693.75;5033143;28;20029;-71
2021/11/10 09:59:09;;;;;;;7.93;4.75;;;;;;;11.13;67.64;102688.91;5032457;28;20037;-70
2021/11/10 10:01:38;;;;;;;6.70;3.47;;;;;;;10.62;67.64;102615.56;5032699;28;20091;-71
2021/11/10 10:04:05;;;;;;;9.88;3.55;;;;;;;11.16;67.24;102694.31;4979441;28;20041;-71
2021/11/10 10:06:32;;;;;;;5.70;3.72;;;;;;;11.09;67.53;102688.59;5027689;28;20033;-74
2021/11/10 10:08:59;;;;;;;5.82;3.60;;;;;;;10.95;67.06;102680.78;5018979;28;20052;-73
2021/11/10 10:11:26;;;;;;;5.80;3.30;;;;;;;11.05;66.60;102647.81;5012962;28;20056;-72
2021/11/10 10:13:51;;;;;;;5.57;3.80;;;;;;;11.15;66.74;102658.91;5011608;28;20037;-71
2021/11/10 10:16:25;;;;;;;7.57;4.53;;;;;;;11.12;66.17;102645.75;5014208;28;20030;-70
2021/11/10 10:18:51;;;;;;;8.82;5.35;;;;;;;11.17;66.55;102665.06;5014617;28;20030;-71
2021/11/10 10:21:24;;;;;;;11.32;4.00;;;;;;;11.36;65.63;102652.53;5014291;28;20164;-70
2021/11/10 10:23:50;;;;;;;11.57;3.53;;;;;;;11.54;65.44;102629.59;5016357;28;20475;-72
2021/11/10 10:26:20;;;;;;;10.85;5.20;;;;;;;11.65;66.05;102636.38;5011957;28;20480;-75
2021/11/10 10:28:50;;;;;;;6.07;3.70;;;;;;;11.82;65.43;102635.88;5012172;28;20108;-72
2021/11/10 10:31:25;;;;;;;9.18;5.55;;;;;;;11.62;64.53;102603.44;5010857;28;20030;-72
2021/11/10 10:33:54;;;;;;;6.75;4.28;;;;;;;11.65;64.92;102623.44;5013440;28;20029;-73
2021/11/10 10:36:22;;;;;;;7.00;3.20;;;;;;;11.47;64.51;102585.22;5013923;28;20120;-71
2021/11/10 10:38:51;;;;;;;10.63;3.72;;;;;;;11.69;64.86;102621.97;5022204;28;20034;-73
2021/11/10 10:41:27;;;;;;;6.20;2.65;;;;;;;11.92;64.11;102620.94;5028962;28;20048;-71
2021/11/10 10:43:55;;;;;;;5.25;3.30;;;;;;;12.05;64.01;102615.81;5012200;28;20037;-73
2021/11/10 10:46:48;;;;;;;7.60;4.05;;;;;;;12.08;61.11;102613.41;5014545;28;20037;-74
2021/11/10 10:49:17;;;;;;;5.18;3.28;;;;;;;12.12;62.38;102609.31;5014717;28;20091;-74
2021/11/10 10:51:52;;;;;;;6.50;2.85;;;;;;;12.29;61.56;102600.06;5015477;28;20160;-76
2021/11/10 10:54:26;;;;;;;6.15;2.95;;;;;;;12.24;61.81;102580.75;5014662;28;20547;-73
2021/11/10 10:56:57;;;;;;;13.80;5.10;;;;;;;12.34;63.42;102596.06;5009607;28;20038;-71
2021/11/10 10:59:26;;;;;;;7.78;3.10;;;;;;;12.22;61.20;102578.03;5009210;28;20037;-74
2021/11/10 11:02:04;;;;;;;6.80;3.47;;;;;;;12.09;63.05;102573.78;5009175;28;20041;-71
2021/11/10 11:04:35;;;;;;;6.13;3.17;;;;;;;11.73;62.27;102485.16;5008876;28;20091;-74
2021/11/10 11:07:10;;;;;;;14.52;4.40;;;;;;;12.38;63.10;102569.56;5009277;28;20586;-72
2021/11/10 11:09:47;;;;;;;8.05;3.10;;;;;;;12.43;61.34;102559.50;5006187;28;20037;-71
2021/11/10 11:12:21;;;;;;;9.52;2.35;;;;;;;12.41;59.67;102574.03;5020284;28;20034;-72
2021/11/10 11:14:52;;;;;;;5.40;2.40;;;;;;;12.43;59.52;102564.66;5008810;28;20113;-72
2021/11/10 11:17:24;;;;;;;4.90;2.40;;;;;;;12.19;61.02;102544.19;5009043;28;20129;-72
2021/11/10 11:20:00;;;;;;;14.18;4.05;;;;;;;12.27;59.72;102562.78;5000734;28;20418;-72
2021/11/10 11:22:29;;;;;;;6.78;3.53;;;;;;;12.49;62.07;102561.59;5028143;28;20042;-72
2021/11/10 11:24:54;;;;;;;4.70;2.70;;;;;;;12.18;61.52;102494.91;5018780;28;20053;-72